Madisonville, TX (77864)

12:19 PM CDT on September 20, 2014 (GMT -0500)
Robinson Ranch (FM1428) | Change Station
CLOSE
Current Station
Personal Weather Station
Location: Madisonville, TX
Elevation: 273 ft
Nearby Weather Stations

Elev 273 ft 30.97 °N, 95.83 °W | Updated 8 minutes ago

Clear
Clear
82.9 °F
Feels Like 86 °F
N
2.0
Wind Variable Wind from ENE

Today
High -- | Low -- °F
--% Chance of Precip.
Yesterday
High -- | Low -- °F
Precip. -- in
7:10 AM 7:22 PM
Waning Crescent, 11% visible
Pressure 29.99 in
Visibility 10.0 miles
Clouds Few 3100 ft
Heat Index 86 °F
Dew Point 69 °F
Humidity 63%
Rainfall 0.00 in
Snow Depth Not available.
UV 8 out of 12
Pollen 9.20 out of 12
Air Quality Not available.
Flu Activity Not available.
METAR KUTS 201653Z AUTO 09006KT 10SM FEW031 29/20 A3000 RMK AO2 SLP153 T02890200

More Conditions Fewer Conditions

Pressure 29.99 in
Visibility 10.0 miles
Clouds Few 3100 ft
Heat Index 86 °F
Dew Point 69 °F
Humidity 63%
Rainfall 0.00 in
Snow Depth Not available.
UV 8 out of 12
Pollen 9.20 out of 12
Air Quality Not available.
Flu Activity Not available.
METAR KUTS 201653Z AUTO 09006KT 10SM FEW031 29/20 A3000 RMK AO2 SLP153 T02890200

More Conditions Fewer Conditions

10-Day Weather Forecast

Almanac

Astronomy

Sep. 20, 2014 Rise Set
Actual Time 7:10 AM CDT 7:22 PM CDT
Civil Twilight 6:46 AM CDT 7:46 PM CDT
Nautical Twilight 6:18 AM CDT 8:14 PM CDT
Astronomical Twilight 5:49 AM CDT 8:43 PM CDT
Moon 4:01 AM CDT 5:17 PM CDT
Length of Visible Light 13h 00m
Length of Day
12h 11m
Tomorrow will be 1m 52s shorter.
Waning Crescent, 11% of the Moon is Illuminated
Today
Waning Crescent
Sep 24
New
Oct 1
First Quarter
Oct 8
Full
Oct 15
Last Quarter

Today's Extremes

State Highs State Lows

Community

WunderPhotos

Upload Photos

1,754,906 photos uploaded!

Nearby

Snow Depth

Station Depth Elevation
No new snow has been reported.

Earthquake Activity

City Distance Mag. Time & Date
No recent earthquake activity has been reported nearby.
Minimum magnitude displayed is 2.5.

Coastal Water Temperatures

Place Temperature
No Stations Reporting

Nearby Weather Stations